90CL weather

Diamond M Ranch Airport
Elk Creek, California, United States

Public forecast

Using degrees Fahrenheit for public forecast. Weather courtesy of forecast.io.

Closest aviation weather report (METAR) to Diamond M Ranch Airport

Closest report is Chico Municipal Airport, 37.2 nm (68.9 km) ENE. Retrieved 2019/10/23 12:35 UTC (14 minutes ago):

KCIC 231235Z AUTO 00000KT 10SM CLR 14/05 A3004 RMK AO1

Closest aviation forecast (TAF) to Diamond M Ranch Airport

Closest forecast is Ukiah Municipal Airport, 38.4 nm (71.1 km) SW. Retrieved 2019/10/23 12:48 UTC (1 minute ago):

TAF KUKI 231145Z 2312/2412 00000KT P6SM SKC FM232100 34008KT P6SM SKC FM240300 35004KT P6SM SKC WS020/06030KT